sensor_id;sensor_type;location;lat;lon;timestamp;P1;durP1;ratioP1;P2;durP2;ratioP2
10947;SDS011;5526;42.070;24.752;2024-01-07T00:00:47;38.08;;;32.30;;
10947;SDS011;5526;42.070;24.752;2024-01-07T00:03:14;39.28;;;34.50;;
10947;SDS011;5526;42.070;24.752;2024-01-07T00:05:43;36.42;;;31.48;;
10947;SDS011;5526;42.070;24.752;2024-01-07T00:08:10;37.13;;;32.03;;
10947;SDS011;5526;42.070;24.752;2024-01-07T00:10:37;36.97;;;32.72;;
10947;SDS011;5526;42.070;24.752;2024-01-07T00:13:04;41.10;;;33.63;;
10947;SDS011;5526;42.070;24.752;2024-01-07T00:15:31;40.58;;;34.08;;
10947;SDS011;5526;42.070;24.752;2024-01-07T00:17:58;40.50;;;32.58;;
10947;SDS011;5526;42.070;24.752;2024-01-07T00:20:25;40.80;;;33.45;;
10947;SDS011;5526;42.070;24.752;2024-01-07T00:22:54;41.72;;;34.00;;
10947;SDS011;5526;42.070;24.752;2024-01-07T00:25:21;46.53;;;34.88;;
10947;SDS011;5526;42.070;24.752;2024-01-07T00:27:48;43.03;;;34.55;;
10947;SDS011;5526;42.070;24.752;2024-01-07T00:30:18;39.95;;;33.33;;
10947;SDS011;5526;42.070;24.752;2024-01-07T00:32:45;41.38;;;33.63;;
10947;SDS011;5526;42.070;24.752;2024-01-07T00:35:12;39.87;;;34.67;;
10947;SDS011;5526;42.070;24.752;2024-01-07T00:37:39;39.45;;;34.63;;
10947;SDS011;5526;42.070;24.752;2024-01-07T00:40:09;37.85;;;33.42;;
10947;SDS011;5526;42.070;24.752;2024-01-07T00:42:36;44.03;;;34.25;;
10947;SDS011;5526;42.070;24.752;2024-01-07T00:45:04;47.55;;;36.40;;
10947;SDS011;5526;42.070;24.752;2024-01-07T00:47:31;46.58;;;35.80;;
10947;SDS011;5526;42.070;24.752;2024-01-07T00:49:58;52.22;;;36.65;;
10947;SDS011;5526;42.070;24.752;2024-01-07T00:52:25;51.40;;;35.80;;
10947;SDS011;5526;42.070;24.752;2024-01-07T00:54:52;52.20;;;35.70;;
10947;SDS011;5526;42.070;24.752;2024-01-07T00:57:21;49.72;;;35.05;;
10947;SDS011;5526;42.070;24.752;2024-01-07T00:59:48;45.53;;;35.30;;
10947;SDS011;5526;42.070;24.752;2024-01-07T01:02:16;44.95;;;33.40;;
10947;SDS011;5526;42.070;24.752;2024-01-07T01:04:44;42.40;;;33.40;;
10947;SDS011;5526;42.070;24.752;2024-01-07T01:07:11;40.20;;;31.00;;
10947;SDS011;5526;42.070;24.752;2024-01-07T01:09:38;42.40;;;34.67;;
10947;SDS011;5526;42.070;24.752;2024-01-07T01:12:05;41.83;;;33.97;;
10947;SDS011;5526;42.070;24.752;2024-01-07T01:14:33;39.20;;;32.45;;
10947;SDS011;5526;42.070;24.752;2024-01-07T01:17:00;39.95;;;31.08;;
10947;SDS011;5526;42.070;24.752;2024-01-07T01:19:27;37.55;;;28.52;;
10947;SDS011;5526;42.070;24.752;2024-01-07T01:21:54;40.00;;;31.63;;
10947;SDS011;5526;42.070;24.752;2024-01-07T01:24:21;37.15;;;30.17;;
10947;SDS011;5526;42.070;24.752;2024-01-07T01:26:49;36.80;;;29.05;;
10947;SDS011;5526;42.070;24.752;2024-01-07T01:29:16;34.75;;;27.80;;
10947;SDS011;5526;42.070;24.752;2024-01-07T01:31:44;37.78;;;28.55;;
10947;SDS011;5526;42.070;24.752;2024-01-07T01:34:11;35.50;;;28.98;;
10947;SDS011;5526;42.070;24.752;2024-01-07T01:36:38;38.22;;;30.98;;
10947;SDS011;5526;42.070;24.752;2024-01-07T01:39:05;39.22;;;30.45;;
10947;SDS011;5526;42.070;24.752;2024-01-07T01:41:32;34.67;;;29.27;;
10947;SDS011;5526;42.070;24.752;2024-01-07T01:44:00;36.58;;;29.83;;
10947;SDS011;5526;42.070;24.752;2024-01-07T01:46:27;35.60;;;29.42;;
10947;SDS011;5526;42.070;24.752;2024-01-07T01:48:57;37.40;;;30.10;;
10947;SDS011;5526;42.070;24.752;2024-01-07T01:51:25;38.65;;;30.65;;
10947;SDS011;5526;42.070;24.752;2024-01-07T01:53:52;37.85;;;31.40;;
10947;SDS011;5526;42.070;24.752;2024-01-07T01:56:23;35.38;;;30.35;;
10947;SDS011;5526;42.070;24.752;2024-01-07T01:58:52;36.47;;;28.20;;
10947;SDS011;5526;42.070;24.752;2024-01-07T02:01:19;38.17;;;29.92;;
10947;SDS011;5526;42.070;24.752;2024-01-07T02:03:47;42.03;;;31.65;;
10947;SDS011;5526;42.070;24.752;2024-01-07T02:06:16;43.03;;;33.22;;
10947;SDS011;5526;42.070;24.752;2024-01-07T02:08:43;40.17;;;31.60;;
10947;SDS011;5526;42.070;24.752;2024-01-07T02:11:16;37.90;;;29.52;;
10947;SDS011;5526;42.070;24.752;2024-01-07T02:13:44;38.67;;;30.48;;
10947;SDS011;5526;42.070;24.752;2024-01-07T02:16:11;41.88;;;32.72;;
10947;SDS011;5526;42.070;24.752;2024-01-07T02:18:40;41.13;;;31.05;;
10947;SDS011;5526;42.070;24.752;2024-01-07T02:21:09;36.72;;;27.67;;
10947;SDS011;5526;42.070;24.752;2024-01-07T02:23:38;34.08;;;26.73;;
10947;SDS011;5526;42.070;24.752;2024-01-07T02:26:06;30.50;;;25.08;;
10947;SDS011;5526;42.070;24.752;2024-01-07T02:28:33;29.83;;;23.77;;
10947;SDS011;5526;42.070;24.752;2024-01-07T02:31:00;30.15;;;22.83;;
10947;SDS011;5526;42.070;24.752;2024-01-07T02:33:27;26.55;;;21.58;;
10947;SDS011;5526;42.070;24.752;2024-01-07T02:35:56;27.88;;;23.45;;
10947;SDS011;5526;42.070;24.752;2024-01-07T02:38:23;24.75;;;22.02;;
10947;SDS011;5526;42.070;24.752;2024-01-07T02:40:50;26.58;;;22.10;;
10947;SDS011;5526;42.070;24.752;2024-01-07T02:43:18;29.77;;;25.52;;
10947;SDS011;5526;42.070;24.752;2024-01-07T02:45:45;33.35;;;26.33;;
10947;SDS011;5526;42.070;24.752;2024-01-07T02:48:12;33.53;;;26.15;;
10947;SDS011;5526;42.070;24.752;2024-01-07T02:50:39;34.47;;;25.58;;
10947;SDS011;5526;42.070;24.752;2024-01-07T02:53:06;28.90;;;25.75;;
10947;SDS011;5526;42.070;24.752;2024-01-07T02:55:36;29.17;;;25.08;;
10947;SDS011;5526;42.070;24.752;2024-01-07T02:58:03;30.42;;;26.98;;
10947;SDS011;5526;42.070;24.752;2024-01-07T03:00:32;29.15;;;26.13;;
10947;SDS011;5526;42.070;24.752;2024-01-07T03:02:59;33.58;;;29.15;;
10947;SDS011;5526;42.070;24.752;2024-01-07T03:05:26;28.85;;;25.23;;
10947;SDS011;5526;42.070;24.752;2024-01-07T03:07:57;29.58;;;25.70;;
10947;SDS011;5526;42.070;24.752;2024-01-07T03:10:24;31.77;;;24.73;;
10947;SDS011;5526;42.070;24.752;2024-01-07T03:12:51;24.08;;;20.73;;
10947;SDS011;5526;42.070;24.752;2024-01-07T03:15:19;23.08;;;20.88;;
10947;SDS011;5526;42.070;24.752;2024-01-07T03:17:47;24.70;;;19.85;;
10947;SDS011;5526;42.070;24.752;2024-01-07T03:20:14;21.90;;;19.67;;
10947;SDS011;5526;42.070;24.752;2024-01-07T03:22:41;23.25;;;19.60;;
10947;SDS011;5526;42.070;24.752;2024-01-07T03:25:09;21.00;;;18.88;;
10947;SDS011;5526;42.070;24.752;2024-01-07T03:27:36;20.30;;;18.30;;
10947;SDS011;5526;42.070;24.752;2024-01-07T03:30:03;20.35;;;18.15;;
10947;SDS011;5526;42.070;24.752;2024-01-07T03:32:31;20.90;;;18.70;;
10947;SDS011;5526;42.070;24.752;2024-01-07T03:34:59;22.17;;;18.90;;
10947;SDS011;5526;42.070;24.752;2024-01-07T03:37:26;21.25;;;19.00;;
10947;SDS011;5526;42.070;24.752;2024-01-07T03:39:54;22.13;;;19.77;;
10947;SDS011;5526;42.070;24.752;2024-01-07T03:42:21;22.08;;;19.83;;
10947;SDS011;5526;42.070;24.752;2024-01-07T03:44:48;23.33;;;21.08;;
10947;SDS011;5526;42.070;24.752;2024-01-07T03:47:15;22.98;;;20.67;;
10947;SDS011;5526;42.070;24.752;2024-01-07T03:49:43;22.95;;;20.67;;
10947;SDS011;5526;42.070;24.752;2024-01-07T03:52:11;24.00;;;21.65;;
10947;SDS011;5526;42.070;24.752;2024-01-07T03:54:38;24.40;;;21.80;;
10947;SDS011;5526;42.070;24.752;2024-01-07T03:57:05;25.52;;;22.75;;
10947;SDS011;5526;42.070;24.752;2024-01-07T03:59:32;25.73;;;22.98;;
10947;SDS011;5526;42.070;24.752;2024-01-07T04:01:59;27.17;;;24.35;;
10947;SDS011;5526;42.070;24.752;2024-01-07T04:04:27;29.13;;;25.50;;
10947;SDS011;5526;42.070;24.752;2024-01-07T04:06:54;30.83;;;27.55;;
10947;SDS011;5526;42.070;24.752;2024-01-07T04:09:23;42.55;;;34.60;;
10947;SDS011;5526;42.070;24.752;2024-01-07T04:11:50;48.40;;;36.60;;
10947;SDS011;5526;42.070;24.752;2024-01-07T04:14:17;46.00;;;36.60;;
10947;SDS011;5526;42.070;24.752;2024-01-07T04:16:44;43.92;;;35.90;;
10947;SDS011;5526;42.070;24.752;2024-01-07T04:19:11;44.00;;;36.50;;
10947;SDS011;5526;42.070;24.752;2024-01-07T04:21:38;40.35;;;34.60;;
10947;SDS011;5526;42.070;24.752;2024-01-07T04:24:05;41.40;;;34.10;;
10947;SDS011;5526;42.070;24.752;2024-01-07T04:26:34;38.63;;;32.40;;
10947;SDS011;5526;42.070;24.752;2024-01-07T04:29:01;40.22;;;33.25;;
10947;SDS011;5526;42.070;24.752;2024-01-07T04:31:28;38.90;;;33.53;;
10947;SDS011;5526;42.070;24.752;2024-01-07T04:33:55;40.13;;;34.05;;
10947;SDS011;5526;42.070;24.752;2024-01-07T04:36:22;38.63;;;33.00;;
10947;SDS011;5526;42.070;24.752;2024-01-07T04:38:49;38.13;;;34.05;;
10947;SDS011;5526;42.070;24.752;2024-01-07T04:41:16;43.75;;;36.58;;
10947;SDS011;5526;42.070;24.752;2024-01-07T04:43:44;45.17;;;38.67;;
10947;SDS011;5526;42.070;24.752;2024-01-07T04:46:11;43.13;;;38.58;;
10947;SDS011;5526;42.070;24.752;2024-01-07T04:48:38;48.15;;;42.70;;
10947;SDS011;5526;42.070;24.752;2024-01-07T04:51:05;52.38;;;45.35;;
10947;SDS011;5526;42.070;24.752;2024-01-07T04:53:33;49.15;;;42.42;;
10947;SDS011;5526;42.070;24.752;2024-01-07T04:56:00;50.53;;;44.80;;
10947;SDS011;5526;42.070;24.752;2024-01-07T04:58:26;54.50;;;48.65;;
10947;SDS011;5526;42.070;24.752;2024-01-07T05:00:55;59.28;;;52.97;;
10947;SDS011;5526;42.070;24.752;2024-01-07T05:03:22;53.30;;;47.60;;
10947;SDS011;5526;42.070;24.752;2024-01-07T05:05:49;48.25;;;43.08;;
10947;SDS011;5526;42.070;24.752;2024-01-07T05:08:16;46.67;;;41.55;;
10947;SDS011;5526;42.070;24.752;2024-01-07T05:10:43;46.42;;;41.63;;
10947;SDS011;5526;42.070;24.752;2024-01-07T05:13:10;44.80;;;40.22;;
10947;SDS011;5526;42.070;24.752;2024-01-07T05:15:37;43.95;;;39.35;;
10947;SDS011;5526;42.070;24.752;2024-01-07T05:18:08;44.30;;;39.60;;
10947;SDS011;5526;42.070;24.752;2024-01-07T05:20:35;44.20;;;38.78;;
10947;SDS011;5526;42.070;24.752;2024-01-07T05:23:02;43.80;;;39.20;;
10947;SDS011;5526;42.070;24.752;2024-01-07T05:25:29;40.05;;;35.88;;
10947;SDS011;5526;42.070;24.752;2024-01-07T05:27:56;39.55;;;35.53;;
10947;SDS011;5526;42.070;24.752;2024-01-07T05:30:23;39.78;;;35.53;;
10947;SDS011;5526;42.070;24.752;2024-01-07T05:32:50;41.95;;;37.15;;
10947;SDS011;5526;42.070;24.752;2024-01-07T05:35:19;41.20;;;36.83;;
10947;SDS011;5526;42.070;24.752;2024-01-07T05:37:46;42.42;;;37.95;;
10947;SDS011;5526;42.070;24.752;2024-01-07T05:40:13;43.03;;;38.47;;
10947;SDS011;5526;42.070;24.752;2024-01-07T05:42:40;43.35;;;38.60;;
10947;SDS011;5526;42.070;24.752;2024-01-07T05:45:07;43.75;;;38.20;;
10947;SDS011;5526;42.070;24.752;2024-01-07T05:47:35;35.40;;;31.67;;
10947;SDS011;5526;42.070;24.752;2024-01-07T05:50:02;42.70;;;38.20;;
10947;SDS011;5526;42.070;24.752;2024-01-07T05:52:31;50.70;;;44.78;;
10947;SDS011;5526;42.070;24.752;2024-01-07T05:54:58;72.90;;;60.75;;
10947;SDS011;5526;42.070;24.752;2024-01-07T05:57:25;63.72;;;50.97;;
10947;SDS011;5526;42.070;24.752;2024-01-07T05:59:52;56.67;;;46.20;;
10947;SDS011;5526;42.070;24.752;2024-01-07T06:02:19;73.03;;;52.42;;
10947;SDS011;5526;42.070;24.752;2024-01-07T06:04:48;65.82;;;51.35;;
10947;SDS011;5526;42.070;24.752;2024-01-07T06:07:15;45.78;;;40.78;;
10947;SDS011;5526;42.070;24.752;2024-01-07T06:09:43;48.42;;;38.90;;
10947;SDS011;5526;42.070;24.752;2024-01-07T06:12:10;44.42;;;38.78;;
10947;SDS011;5526;42.070;24.752;2024-01-07T06:14:38;47.90;;;39.70;;
10947;SDS011;5526;42.070;24.752;2024-01-07T06:17:05;49.63;;;42.03;;
10947;SDS011;5526;42.070;24.752;2024-01-07T06:19:32;30.38;;;27.15;;
10947;SDS011;5526;42.070;24.752;2024-01-07T06:21:59;38.45;;;34.40;;
10947;SDS011;5526;42.070;24.752;2024-01-07T06:24:26;42.40;;;36.13;;
10947;SDS011;5526;42.070;24.752;2024-01-07T06:26:55;44.97;;;39.58;;
10947;SDS011;5526;42.070;24.752;2024-01-07T06:29:22;42.75;;;38.08;;
10947;SDS011;5526;42.070;24.752;2024-01-07T06:31:49;39.70;;;35.58;;
10947;SDS011;5526;42.070;24.752;2024-01-07T06:34:16;37.38;;;33.38;;
10947;SDS011;5526;42.070;24.752;2024-01-07T06:36:43;38.70;;;34.53;;
10947;SDS011;5526;42.070;24.752;2024-01-07T06:39:10;35.95;;;31.98;;
10947;SDS011;5526;42.070;24.752;2024-01-07T06:41:37;33.33;;;30.02;;
10947;SDS011;5526;42.070;24.752;2024-01-07T06:44:06;32.78;;;29.42;;
10947;SDS011;5526;42.070;24.752;2024-01-07T06:46:33;33.90;;;30.35;;
10947;SDS011;5526;42.070;24.752;2024-01-07T06:49:00;31.60;;;28.50;;
10947;SDS011;5526;42.070;24.752;2024-01-07T06:51:27;28.83;;;26.08;;
10947;SDS011;5526;42.070;24.752;2024-01-07T06:53:55;24.60;;;22.30;;
10947;SDS011;5526;42.070;24.752;2024-01-07T06:56:22;28.27;;;25.33;;
10947;SDS011;5526;42.070;24.752;2024-01-07T06:58:49;24.58;;;22.17;;
10947;SDS011;5526;42.070;24.752;2024-01-07T07:01:19;27.42;;;23.85;;
10947;SDS011;5526;42.070;24.752;2024-01-07T07:03:48;33.47;;;30.08;;
10947;SDS011;5526;42.070;24.752;2024-01-07T07:06:15;37.97;;;34.17;;
10947;SDS011;5526;42.070;24.752;2024-01-07T07:08:43;35.05;;;31.58;;
10947;SDS011;5526;42.070;24.752;2024-01-07T07:11:10;41.08;;;36.78;;
10947;SDS011;5526;42.070;24.752;2024-01-07T07:13:37;39.60;;;35.53;;
10947;SDS011;5526;42.070;24.752;2024-01-07T07:16:05;35.85;;;32.20;;
10947;SDS011;5526;42.070;24.752;2024-01-07T07:18:34;27.85;;;24.95;;
10947;SDS011;5526;42.070;24.752;2024-01-07T07:21:01;18.10;;;16.33;;
10947;SDS011;5526;42.070;24.752;2024-01-07T07:23:28;16.48;;;14.77;;
10947;SDS011;5526;42.070;24.752;2024-01-07T07:25:55;14.00;;;12.70;;
10947;SDS011;5526;42.070;24.752;2024-01-07T07:28:22;13.77;;;12.30;;
10947;SDS011;5526;42.070;24.752;2024-01-07T07:30:49;11.77;;;10.60;;
10947;SDS011;5526;42.070;24.752;2024-01-07T07:33:17;8.93;;;8.20;;
10947;SDS011;5526;42.070;24.752;2024-01-07T07:35:45;9.23;;;8.32;;
10947;SDS011;5526;42.070;24.752;2024-01-07T07:38:12;30.05;;;26.27;;
10947;SDS011;5526;42.070;24.752;2024-01-07T07:40:39;8.93;;;8.02;;
10947;SDS011;5526;42.070;24.752;2024-01-07T07:43:07;8.02;;;7.22;;
10947;SDS011;5526;42.070;24.752;2024-01-07T07:45:34;8.02;;;7.32;;
10947;SDS011;5526;42.070;24.752;2024-01-07T07:48:02;6.20;;;5.60;;
10947;SDS011;5526;42.070;24.752;2024-01-07T07:50:30;5.43;;;5.00;;
10947;SDS011;5526;42.070;24.752;2024-01-07T07:52:59;6.38;;;4.82;;
10947;SDS011;5526;42.070;24.752;2024-01-07T07:55:26;5.72;;;5.22;;
10947;SDS011;5526;42.070;24.752;2024-01-07T07:57:53;5.82;;;5.28;;
10947;SDS011;5526;42.070;24.752;2024-01-07T08:00:20;5.43;;;4.78;;
10947;SDS011;5526;42.070;24.752;2024-01-07T08:02:47;5.78;;;4.60;;
10947;SDS011;5526;42.070;24.752;2024-01-07T08:05:15;5.50;;;4.95;;
10947;SDS011;5526;42.070;24.752;2024-01-07T08:07:42;5.10;;;4.60;;
10947;SDS011;5526;42.070;24.752;2024-01-07T08:10:11;4.68;;;3.97;;
10947;SDS011;5526;42.070;24.752;2024-01-07T08:12:38;4.70;;;4.28;;
10947;SDS011;5526;42.070;24.752;2024-01-07T08:15:05;4.60;;;4.20;;
10947;SDS011;5526;42.070;24.752;2024-01-07T08:17:34;6.00;;;5.40;;
10947;SDS011;5526;42.070;24.752;2024-01-07T08:20:01;10.80;;;9.10;;
10947;SDS011;5526;42.070;24.752;2024-01-07T08:22:29;8.48;;;7.40;;
10947;SDS011;5526;42.070;24.752;2024-01-07T08:24:56;7.28;;;6.55;;
10947;SDS011;5526;42.070;24.752;2024-01-07T08:27:25;7.47;;;6.35;;
10947;SDS011;5526;42.070;24.752;2024-01-07T08:29:52;15.10;;;13.35;;
10947;SDS011;5526;42.070;24.752;2024-01-07T08:32:19;20.35;;;18.33;;
10947;SDS011;5526;42.070;24.752;2024-01-07T08:34:48;21.13;;;19.05;;
10947;SDS011;5526;42.070;24.752;2024-01-07T08:37:15;21.70;;;19.50;;
10947;SDS011;5526;42.070;24.752;2024-01-07T08:39:42;17.35;;;15.75;;
10947;SDS011;5526;42.070;24.752;2024-01-07T08:42:09;13.63;;;12.23;;
10947;SDS011;5526;42.070;24.752;2024-01-07T08:44:38;14.48;;;13.07;;
10947;SDS011;5526;42.070;24.752;2024-01-07T08:47:05;13.15;;;11.85;;
10947;SDS011;5526;42.070;24.752;2024-01-07T08:49:32;10.10;;;9.18;;
10947;SDS011;5526;42.070;24.752;2024-01-07T08:52:00;8.45;;;7.55;;
10947;SDS011;5526;42.070;24.752;2024-01-07T08:54:27;8.23;;;7.18;;
10947;SDS011;5526;42.070;24.752;2024-01-07T08:56:54;13.65;;;12.32;;
10947;SDS011;5526;42.070;24.752;2024-01-07T08:59:21;13.98;;;12.48;;
10947;SDS011;5526;42.070;24.752;2024-01-07T09:01:50;14.55;;;13.25;;
10947;SDS011;5526;42.070;24.752;2024-01-07T09:04:17;14.63;;;13.15;;
10947;SDS011;5526;42.070;24.752;2024-01-07T09:06:44;12.60;;;11.40;;
10947;SDS011;5526;42.070;24.752;2024-01-07T09:09:11;12.77;;;11.57;;
10947;SDS011;5526;42.070;24.752;2024-01-07T09:11:38;10.40;;;8.55;;
10947;SDS011;5526;42.070;24.752;2024-01-07T09:14:05;10.45;;;9.13;;
10947;SDS011;5526;42.070;24.752;2024-01-07T09:16:33;8.60;;;7.70;;
10947;SDS011;5526;42.070;24.752;2024-01-07T09:19:02;7.43;;;6.30;;
10947;SDS011;5526;42.070;24.752;2024-01-07T09:21:29;5.97;;;5.38;;
10947;SDS011;5526;42.070;24.752;2024-01-07T09:23:56;4.88;;;4.22;;
10947;SDS011;5526;42.070;24.752;2024-01-07T09:26:23;5.47;;;4.43;;
10947;SDS011;5526;42.070;24.752;2024-01-07T09:28:50;4.80;;;4.10;;
10947;SDS011;5526;42.070;24.752;2024-01-07T09:31:17;5.65;;;3.97;;
10947;SDS011;5526;42.070;24.752;2024-01-07T09:33:44;5.18;;;4.60;;
10947;SDS011;5526;42.070;24.752;2024-01-07T09:36:13;5.43;;;4.25;;
10947;SDS011;5526;42.070;24.752;2024-01-07T09:38:41;4.88;;;3.92;;
10947;SDS011;5526;42.070;24.752;2024-01-07T09:41:08;23.27;;;8.40;;
10947;SDS011;5526;42.070;24.752;2024-01-07T09:43:35;8.25;;;5.30;;
10947;SDS011;5526;42.070;24.752;2024-01-07T09:46:02;5.38;;;4.88;;
10947;SDS011;5526;42.070;24.752;2024-01-07T09:48:30;7.55;;;4.75;;
10947;SDS011;5526;42.070;24.752;2024-01-07T09:50:57;5.88;;;5.25;;
10947;SDS011;5526;42.070;24.752;2024-01-07T09:53:30;7.78;;;6.45;;
10947;SDS011;5526;42.070;24.752;2024-01-07T09:56:00;11.25;;;10.05;;
10947;SDS011;5526;42.070;24.752;2024-01-07T09:58:33;11.30;;;10.27;;
10947;SDS011;5526;42.070;24.752;2024-01-07T10:01:00;15.52;;;13.85;;
10947;SDS011;5526;42.070;24.752;2024-01-07T10:03:30;17.50;;;15.70;;
10947;SDS011;5526;42.070;24.752;2024-01-07T10:05:57;20.38;;;18.23;;
10947;SDS011;5526;42.070;24.752;2024-01-07T10:08:24;21.30;;;19.02;;
10947;SDS011;5526;42.070;24.752;2024-01-07T10:10:53;22.33;;;20.02;;
10947;SDS011;5526;42.070;24.752;2024-01-07T10:13:20;24.20;;;20.95;;
10947;SDS011;5526;42.070;24.752;2024-01-07T10:15:48;26.75;;;23.13;;
10947;SDS011;5526;42.070;24.752;2024-01-07T10:18:16;39.45;;;31.27;;
10947;SDS011;5526;42.070;24.752;2024-01-07T10:20:44;28.30;;;22.92;;
10947;SDS011;5526;42.070;24.752;2024-01-07T10:23:12;22.85;;;20.10;;
10947;SDS011;5526;42.070;24.752;2024-01-07T10:25:39;43.55;;;36.85;;
10947;SDS011;5526;42.070;24.752;2024-01-07T10:28:08;32.10;;;28.65;;
10947;SDS011;5526;42.070;24.752;2024-01-07T10:30:38;36.33;;;32.45;;
10947;SDS011;5526;42.070;24.752;2024-01-07T10:33:06;21.83;;;19.45;;
10947;SDS011;5526;42.070;24.752;2024-01-07T10:35:34;23.13;;;20.08;;
10947;SDS011;5526;42.070;24.752;2024-01-07T10:38:03;23.33;;;20.88;;
10947;SDS011;5526;42.070;24.752;2024-01-07T10:40:30;23.77;;;21.27;;
10947;SDS011;5526;42.070;24.752;2024-01-07T10:42:59;24.27;;;21.42;;
10947;SDS011;5526;42.070;24.752;2024-01-07T10:45:28;22.75;;;20.48;;
10947;SDS011;5526;42.070;24.752;2024-01-07T10:47:57;18.55;;;16.60;;
10947;SDS011;5526;42.070;24.752;2024-01-07T10:50:31;16.35;;;14.75;;
10947;SDS011;5526;42.070;24.752;2024-01-07T10:53:02;17.70;;;15.80;;
10947;SDS011;5526;42.070;24.752;2024-01-07T10:55:33;27.85;;;22.10;;
10947;SDS011;5526;42.070;24.752;2024-01-07T10:58:03;17.00;;;13.98;;
10947;SDS011;5526;42.070;24.752;2024-01-07T11:00:32;21.95;;;19.80;;
10947;SDS011;5526;42.070;24.752;2024-01-07T11:03:02;12.48;;;10.50;;
10947;SDS011;5526;42.070;24.752;2024-01-07T11:05:45;9.57;;;8.68;;
10947;SDS011;5526;42.070;24.752;2024-01-07T11:08:19;9.63;;;8.73;;
10947;SDS011;5526;42.070;24.752;2024-01-07T11:10:53;8.32;;;7.53;;
10947;SDS011;5526;42.070;24.752;2024-01-07T11:13:34;4.97;;;3.13;;
10947;SDS011;5526;42.070;24.752;2024-01-07T11:16:05;5.22;;;4.55;;
10947;SDS011;5526;42.070;24.752;2024-01-07T11:18:37;5.50;;;4.13;;
10947;SDS011;5526;42.070;24.752;2024-01-07T11:21:05;4.57;;;3.60;;
10947;SDS011;5526;42.070;24.752;2024-01-07T11:23:33;5.43;;;4.57;;
10947;SDS011;5526;42.070;24.752;2024-01-07T11:26:02;4.30;;;3.70;;
10947;SDS011;5526;42.070;24.752;2024-01-07T11:28:42;6.32;;;3.65;;
10947;SDS011;5526;42.070;24.752;2024-01-07T11:31:11;4.00;;;3.55;;
10947;SDS011;5526;42.070;24.752;2024-01-07T11:33:39;3.08;;;2.58;;
10947;SDS011;5526;42.070;24.752;2024-01-07T11:36:08;6.45;;;3.28;;
10947;SDS011;5526;42.070;24.752;2024-01-07T11:38:37;3.75;;;2.30;;
10947;SDS011;5526;42.070;24.752;2024-01-07T11:41:05;3.17;;;2.72;;
10947;SDS011;5526;42.070;24.752;2024-01-07T11:43:32;4.35;;;3.42;;
10947;SDS011;5526;42.070;24.752;2024-01-07T11:46:00;2.67;;;2.20;;
10947;SDS011;5526;42.070;24.752;2024-01-07T11:48:28;2.70;;;1.38;;
10947;SDS011;5526;42.070;24.752;2024-01-07T11:50:55;6.50;;;5.90;;
10947;SDS011;5526;42.070;24.752;2024-01-07T11:53:22;3.13;;;2.00;;
10947;SDS011;5526;42.070;24.752;2024-01-07T11:55:50;6.18;;;2.40;;
10947;SDS011;5526;42.070;24.752;2024-01-07T11:58:18;6.13;;;4.72;;
10947;SDS011;5526;42.070;24.752;2024-01-07T12:00:45;3.35;;;1.40;;
10947;SDS011;5526;42.070;24.752;2024-01-07T12:03:12;2.13;;;1.33;;
10947;SDS011;5526;42.070;24.752;2024-01-07T12:05:40;2.67;;;1.60;;
10947;SDS011;5526;42.070;24.752;2024-01-07T12:08:07;4.38;;;3.20;;
10947;SDS011;5526;42.070;24.752;2024-01-07T12:10:37;5.90;;;3.90;;
10947;SDS011;5526;42.070;24.752;2024-01-07T12:13:04;5.13;;;4.40;;
10947;SDS011;5526;42.070;24.752;2024-01-07T12:15:33;3.75;;;3.38;;
10947;SDS011;5526;42.070;24.752;2024-01-07T12:18:01;4.43;;;3.05;;
10947;SDS011;5526;42.070;24.752;2024-01-07T12:20:28;6.15;;;3.47;;
10947;SDS011;5526;42.070;24.752;2024-01-07T12:23:04;4.45;;;3.70;;
10947;SDS011;5526;42.070;24.752;2024-01-07T12:25:32;3.53;;;3.22;;
10947;SDS011;5526;42.070;24.752;2024-01-07T12:27:59;9.40;;;3.50;;
10947;SDS011;5526;42.070;24.752;2024-01-07T12:30:27;6.03;;;4.00;;
10947;SDS011;5526;42.070;24.752;2024-01-07T12:32:56;7.25;;;3.80;;
10947;SDS011;5526;42.070;24.752;2024-01-07T12:35:25;5.07;;;4.30;;
10947;SDS011;5526;42.070;24.752;2024-01-07T12:37:52;9.20;;;6.13;;
10947;SDS011;5526;42.070;24.752;2024-01-07T12:40:22;6.97;;;5.70;;
10947;SDS011;5526;42.070;24.752;2024-01-07T12:42:52;6.50;;;5.63;;
10947;SDS011;5526;42.070;24.752;2024-01-07T12:45:19;6.10;;;5.28;;
10947;SDS011;5526;42.070;24.752;2024-01-07T12:47:46;5.20;;;4.70;;
10947;SDS011;5526;42.070;24.752;2024-01-07T12:50:13;7.47;;;4.45;;
10947;SDS011;5526;42.070;24.752;2024-01-07T12:52:40;6.55;;;4.75;;
10947;SDS011;5526;42.070;24.752;2024-01-07T12:55:08;8.75;;;5.68;;
10947;SDS011;5526;42.070;24.752;2024-01-07T12:57:36;3.08;;;2.28;;
10947;SDS011;5526;42.070;24.752;2024-01-07T13:00:04;2.95;;;2.42;;
10947;SDS011;5526;42.070;24.752;2024-01-07T13:02:32;5.55;;;2.80;;
10947;SDS011;5526;42.070;24.752;2024-01-07T13:05:01;3.60;;;2.40;;
10947;SDS011;5526;42.070;24.752;2024-01-07T13:07:28;26.52;;;16.17;;
10947;SDS011;5526;42.070;24.752;2024-01-07T13:09:55;21.67;;;12.23;;
10947;SDS011;5526;42.070;24.752;2024-01-07T13:12:22;10.35;;;5.72;;
10947;SDS011;5526;42.070;24.752;2024-01-07T13:14:51;8.65;;;5.15;;
10947;SDS011;5526;42.070;24.752;2024-01-07T13:17:18;14.93;;;9.70;;
10947;SDS011;5526;42.070;24.752;2024-01-07T13:19:45;12.70;;;8.13;;
10947;SDS011;5526;42.070;24.752;2024-01-07T13:22:12;6.78;;;3.00;;
10947;SDS011;5526;42.070;24.752;2024-01-07T13:24:40;8.55;;;4.53;;
10947;SDS011;5526;42.070;24.752;2024-01-07T13:27:07;5.82;;;3.97;;
10947;SDS011;5526;42.070;24.752;2024-01-07T13:29:34;5.03;;;3.22;;
10947;SDS011;5526;42.070;24.752;2024-01-07T13:32:03;7.80;;;4.13;;
10947;SDS011;5526;42.070;24.752;2024-01-07T13:34:30;7.45;;;4.50;;
10947;SDS011;5526;42.070;24.752;2024-01-07T13:36:58;12.63;;;9.48;;
10947;SDS011;5526;42.070;24.752;2024-01-07T13:39:25;19.20;;;12.60;;
10947;SDS011;5526;42.070;24.752;2024-01-07T13:41:52;10.05;;;6.82;;
10947;SDS011;5526;42.070;24.752;2024-01-07T13:44:19;10.00;;;6.70;;
10947;SDS011;5526;42.070;24.752;2024-01-07T13:46:46;8.75;;;6.25;;
10947;SDS011;5526;42.070;24.752;2024-01-07T13:49:15;19.58;;;11.88;;
10947;SDS011;5526;42.070;24.752;2024-01-07T13:51:42;13.13;;;9.00;;
10947;SDS011;5526;42.070;24.752;2024-01-07T13:54:11;35.92;;;17.25;;
10947;SDS011;5526;42.070;24.752;2024-01-07T13:56:39;21.90;;;10.25;;
10947;SDS011;5526;42.070;24.752;2024-01-07T13:59:09;13.32;;;8.68;;
10947;SDS011;5526;42.070;24.752;2024-01-07T14:01:36;17.05;;;10.85;;
10947;SDS011;5526;42.070;24.752;2024-01-07T14:04:04;18.63;;;10.88;;
10947;SDS011;5526;42.070;24.752;2024-01-07T14:06:33;8.40;;;3.20;;
10947;SDS011;5526;42.070;24.752;2024-01-07T14:09:00;13.65;;;7.75;;
10947;SDS011;5526;42.070;24.752;2024-01-07T14:11:28;24.05;;;17.90;;
10947;SDS011;5526;42.070;24.752;2024-01-07T14:13:55;23.13;;;15.50;;
10947;SDS011;5526;42.070;24.752;2024-01-07T14:16:22;310.23;;;176.90;;
10947;SDS011;5526;42.070;24.752;2024-01-07T14:18:49;35.55;;;21.17;;
10947;SDS011;5526;42.070;24.752;2024-01-07T14:21:16;32.40;;;20.42;;
10947;SDS011;5526;42.070;24.752;2024-01-07T14:23:45;36.50;;;23.50;;
10947;SDS011;5526;42.070;24.752;2024-01-07T14:26:12;26.35;;;15.95;;
10947;SDS011;5526;42.070;24.752;2024-01-07T14:28:40;13.65;;;7.25;;
10947;SDS011;5526;42.070;24.752;2024-01-07T14:31:07;12.45;;;8.23;;